LFQB 282030Z AUTO 23021G35KT 9999 SCT032/// BKN045/// BKN054/// ///TCU 07/03 Q1006

ElémentsDécodage
LFQB Station météo située sur l'aérodrome de TROYES Barberey
282030Z émis le 28 du mois à 20h30 UTC
AUTO Bulletin édité par un automate
23021G35KT vent du 230°, moyenne: 21 noeuds, avec rafales à 35 noeuds
9999 visibilité horizontale supérieure à 10 Km
SCT032/// nuages épars (3/8 à 4/8) à 3200 pieds
 type de nuage non observable
BKN045/// nuages morcelés (5/8 à 7/8) à 4500 pieds
 type de nuage non observable
BKN054/// nuages morcelés (5/8 à 7/8) à 5400 pieds
 type de nuage non observable
///TCU élement non décodé
07/03 température 07°C, point de rosée 03°C
 soit une humidité relative de 76%
Q1006 la pression au niveau de la mer (QNH) est de 1006 hPa